sensor_id;sensor_type;location;lat;lon;timestamp;pressure;altitude;pressure_sealevel;temperature;humidity
21828;BME280;11076;47.942;11.804;2022-10-31T00:04:48;94840.81;;;9.65;100.00
21828;BME280;11076;47.942;11.804;2022-10-31T00:09:50;94850.03;;;9.56;100.00
21828;BME280;11076;47.942;11.804;2022-10-31T00:14:52;94843.66;;;9.50;100.00
21828;BME280;11076;47.942;11.804;2022-10-31T00:19:55;94847.53;;;9.48;100.00
21828;BME280;11076;47.942;11.804;2022-10-31T00:24:57;94840.16;;;9.43;100.00
21828;BME280;11076;47.942;11.804;2022-10-31T00:30:00;94829.47;;;9.50;100.00
21828;BME280;11076;47.942;11.804;2022-10-31T00:35:02;94829.69;;;9.48;100.00
21828;BME280;11076;47.942;11.804;2022-10-31T00:40:05;94836.00;;;9.41;100.00
21828;BME280;11076;47.942;11.804;2022-10-31T00:45:11;94834.56;;;9.31;100.00
21828;BME280;11076;47.942;11.804;2022-10-31T00:50:13;94831.03;;;9.24;100.00
21828;BME280;11076;47.942;11.804;2022-10-31T00:55:16;94839.41;;;9.14;100.00
21828;BME280;11076;47.942;11.804;2022-10-31T01:00:18;94832.41;;;9.07;100.00
21828;BME280;11076;47.942;11.804;2022-10-31T01:05:21;94831.16;;;9.03;100.00
21828;BME280;11076;47.942;11.804;2022-10-31T01:10:24;94831.31;;;8.94;100.00
21828;BME280;11076;47.942;11.804;2022-10-31T01:15:26;94831.94;;;8.96;100.00
21828;BME280;11076;47.942;11.804;2022-10-31T01:20:29;94828.06;;;8.99;100.00
21828;BME280;11076;47.942;11.804;2022-10-31T01:25:31;94825.38;;;8.99;100.00
21828;BME280;11076;47.942;11.804;2022-10-31T01:30:33;94825.56;;;8.91;100.00
21828;BME280;11076;47.942;11.804;2022-10-31T01:35:36;94831.31;;;8.94;100.00
21828;BME280;11076;47.942;11.804;2022-10-31T01:40:38;94825.81;;;8.96;100.00
21828;BME280;11076;47.942;11.804;2022-10-31T01:45:44;94822.25;;;8.89;100.00
21828;BME280;11076;47.942;11.804;2022-10-31T01:50:50;94821.81;;;8.85;100.00
21828;BME280;11076;47.942;11.804;2022-10-31T01:55:53;94825.72;;;8.83;100.00
21828;BME280;11076;47.942;11.804;2022-10-31T02:00:59;94822.63;;;8.79;100.00
21828;BME280;11076;47.942;11.804;2022-10-31T02:06:03;94818.13;;;8.80;100.00
21828;BME280;11076;47.942;11.804;2022-10-31T02:11:09;94816.09;;;8.82;100.00
21828;BME280;11076;47.942;11.804;2022-10-31T02:16:11;94818.53;;;8.83;100.00
21828;BME280;11076;47.942;11.804;2022-10-31T02:21:19;94818.16;;;8.86;100.00
21828;BME280;11076;47.942;11.804;2022-10-31T02:26:44;94816.75;;;8.90;100.00
21828;BME280;11076;47.942;11.804;2022-10-31T02:37:20;94815.25;;;8.81;100.00
21828;BME280;11076;47.942;11.804;2022-10-31T02:42:33;94813.59;;;8.73;100.00
21828;BME280;11076;47.942;11.804;2022-10-31T02:47:38;94819.03;;;8.59;100.00
21828;BME280;11076;47.942;11.804;2022-10-31T02:52:41;94822.03;;;8.49;100.00
21828;BME280;11076;47.942;11.804;2022-10-31T02:57:43;94816.53;;;8.50;100.00
21828;BME280;11076;47.942;11.804;2022-10-31T03:03:19;94818.41;;;8.56;100.00
21828;BME280;11076;47.942;11.804;2022-10-31T03:14:29;94807.78;;;9.05;100.00
21828;BME280;11076;47.942;11.804;2022-10-31T03:19:41;94809.31;;;9.27;100.00
21828;BME280;11076;47.942;11.804;2022-10-31T03:24:46;94806.03;;;9.39;100.00
21828;BME280;11076;47.942;11.804;2022-10-31T03:29:54;94805.41;;;9.36;100.00
21828;BME280;11076;47.942;11.804;2022-10-31T03:34:59;94816.47;;;9.20;100.00
21828;BME280;11076;47.942;11.804;2022-10-31T03:40:06;94811.69;;;9.09;100.00
21828;BME280;11076;47.942;11.804;2022-10-31T03:45:14;94818.66;;;9.03;100.00
21828;BME280;11076;47.942;11.804;2022-10-31T03:50:18;94811.84;;;9.01;100.00
21828;BME280;11076;47.942;11.804;2022-10-31T03:55:31;94816.75;;;8.90;100.00
21828;BME280;11076;47.942;11.804;2022-10-31T04:00:39;94809.78;;;8.89;100.00
21828;BME280;11076;47.942;11.804;2022-10-31T04:05:46;94810.78;;;8.88;100.00
21828;BME280;11076;47.942;11.804;2022-10-31T04:10:49;94809.91;;;8.81;100.00
21828;BME280;11076;47.942;11.804;2022-10-31T04:15:55;94810.50;;;8.76;100.00
21828;BME280;11076;47.942;11.804;2022-10-31T04:21:03;94811.94;;;8.72;100.00
21828;BME280;11076;47.942;11.804;2022-10-31T04:26:06;94820.69;;;8.60;100.00
21828;BME280;11076;47.942;11.804;2022-10-31T04:31:11;94812.41;;;8.48;100.00
21828;BME280;11076;47.942;11.804;2022-10-31T04:36:14;94820.91;;;8.36;100.00
21828;BME280;11076;47.942;11.804;2022-10-31T04:41:17;94817.44;;;8.36;100.00
21828;BME280;11076;47.942;11.804;2022-10-31T04:46:28;94826.97;;;8.24;100.00
21828;BME280;11076;47.942;11.804;2022-10-31T04:51:32;94817.31;;;8.23;100.00
21828;BME280;11076;47.942;11.804;2022-10-31T04:56:35;94814.41;;;8.17;100.00
21828;BME280;11076;47.942;11.804;2022-10-31T05:01:44;94821.91;;;8.07;100.00
21828;BME280;11076;47.942;11.804;2022-10-31T05:06:47;94825.75;;;7.98;100.00
21828;BME280;11076;47.942;11.804;2022-10-31T05:11:49;94818.72;;;7.90;100.00
21828;BME280;11076;47.942;11.804;2022-10-31T05:17:27;94820.78;;;7.95;100.00
21828;BME280;11076;47.942;11.804;2022-10-31T05:22:57;94813.28;;;8.05;100.00
21828;BME280;11076;47.942;11.804;2022-10-31T05:27:59;94810.44;;;8.07;100.00
21828;BME280;11076;47.942;11.804;2022-10-31T05:33:02;94812.28;;;8.06;100.00
21828;BME280;11076;47.942;11.804;2022-10-31T05:38:23;94806.97;;;8.06;100.00
21828;BME280;11076;47.942;11.804;2022-10-31T05:43:27;94809.22;;;8.09;100.00
21828;BME280;11076;47.942;11.804;2022-10-31T05:48:29;94809.47;;;8.14;100.00
21828;BME280;11076;47.942;11.804;2022-10-31T05:53:52;94808.22;;;8.10;100.00
21828;BME280;11076;47.942;11.804;2022-10-31T05:58:55;94817.03;;;8.11;100.00
21828;BME280;11076;47.942;11.804;2022-10-31T06:04:00;94815.59;;;8.08;100.00
21828;BME280;11076;47.942;11.804;2022-10-31T06:09:04;94821.69;;;8.02;100.00
21828;BME280;11076;47.942;11.804;2022-10-31T06:14:09;94823.31;;;8.03;100.00
21828;BME280;11076;47.942;11.804;2022-10-31T06:19:40;94807.53;;;8.02;100.00
21828;BME280;11076;47.942;11.804;2022-10-31T06:24:45;94820.28;;;8.06;100.00
21828;BME280;11076;47.942;11.804;2022-10-31T06:29:53;94819.34;;;8.21;100.00
21828;BME280;11076;47.942;11.804;2022-10-31T06:35:10;94813.50;;;8.32;100.00
21828;BME280;11076;47.942;11.804;2022-10-31T06:40:14;94818.13;;;8.45;100.00
21828;BME280;11076;47.942;11.804;2022-10-31T06:45:40;94816.19;;;8.60;100.00
21828;BME280;11076;47.942;11.804;2022-10-31T06:51:06;94814.00;;;8.77;100.00
21828;BME280;11076;47.942;11.804;2022-10-31T06:56:08;94810.84;;;9.02;100.00
21828;BME280;11076;47.942;11.804;2022-10-31T07:01:16;94809.50;;;9.26;100.00
21828;BME280;11076;47.942;11.804;2022-10-31T07:06:18;94821.66;;;9.48;100.00
21828;BME280;11076;47.942;11.804;2022-10-31T07:11:21;94813.50;;;9.76;100.00
21828;BME280;11076;47.942;11.804;2022-10-31T07:16:24;94821.38;;;10.05;100.00
21828;BME280;11076;47.942;11.804;2022-10-31T07:21:26;94820.56;;;10.31;100.00
21828;BME280;11076;47.942;11.804;2022-10-31T07:26:29;94822.81;;;10.47;100.00
21828;BME280;11076;47.942;11.804;2022-10-31T07:31:31;94821.09;;;10.80;100.00
21828;BME280;11076;47.942;11.804;2022-10-31T07:36:39;94816.69;;;11.12;100.00
21828;BME280;11076;47.942;11.804;2022-10-31T07:41:42;94806.69;;;11.39;100.00
21828;BME280;11076;47.942;11.804;2022-10-31T07:46:44;94811.47;;;11.69;100.00
21828;BME280;11076;47.942;11.804;2022-10-31T07:52:05;94802.88;;;11.99;100.00
21828;BME280;11076;47.942;11.804;2022-10-31T07:57:46;94800.34;;;12.29;100.00
21828;BME280;11076;47.942;11.804;2022-10-31T08:02:48;94787.75;;;12.54;98.97
21828;BME280;11076;47.942;11.804;2022-10-31T08:08:16;94789.03;;;12.70;97.84
21828;BME280;11076;47.942;11.804;2022-10-31T08:13:22;94786.88;;;12.79;98.05
21828;BME280;11076;47.942;11.804;2022-10-31T08:18:25;94779.16;;;12.89;97.32
21828;BME280;11076;47.942;11.804;2022-10-31T08:23:28;94776.75;;;13.00;95.98
21828;BME280;11076;47.942;11.804;2022-10-31T08:28:30;94774.06;;;13.37;93.67
21828;BME280;11076;47.942;11.804;2022-10-31T08:33:33;94772.97;;;13.56;92.90
21828;BME280;11076;47.942;11.804;2022-10-31T08:38:53;94767.03;;;14.08;91.23
21828;BME280;11076;47.942;11.804;2022-10-31T08:43:58;94766.16;;;14.49;88.92
21828;BME280;11076;47.942;11.804;2022-10-31T08:49:01;94765.38;;;14.73;87.02
21828;BME280;11076;47.942;11.804;2022-10-31T08:54:03;94761.22;;;14.94;86.87
21828;BME280;11076;47.942;11.804;2022-10-31T08:59:24;94752.06;;;15.18;86.64
21828;BME280;11076;47.942;11.804;2022-10-31T09:04:59;94743.41;;;15.45;85.10
21828;BME280;11076;47.942;11.804;2022-10-31T09:10:02;94733.56;;;15.67;82.94
21828;BME280;11076;47.942;11.804;2022-10-31T09:15:08;94737.72;;;15.87;81.99
21828;BME280;11076;47.942;11.804;2022-10-31T09:20:23;94726.72;;;15.88;81.62
21828;BME280;11076;47.942;11.804;2022-10-31T09:25:27;94729.41;;;16.05;79.20
21828;BME280;11076;47.942;11.804;2022-10-31T09:30:52;94729.91;;;16.19;77.00
21828;BME280;11076;47.942;11.804;2022-10-31T09:36:17;94718.53;;;16.34;75.71
21828;BME280;11076;47.942;11.804;2022-10-31T09:46:55;94720.53;;;16.61;74.37
21828;BME280;11076;47.942;11.804;2022-10-31T09:52:32;94718.38;;;16.80;71.43
21828;BME280;11076;47.942;11.804;2022-10-31T09:57:40;94700.53;;;16.96;70.93
21828;BME280;11076;47.942;11.804;2022-10-31T10:02:51;94698.72;;;17.01;70.51
21828;BME280;11076;47.942;11.804;2022-10-31T10:08:20;94690.69;;;17.34;67.88
21828;BME280;11076;47.942;11.804;2022-10-31T10:14:06;94686.09;;;17.07;69.13
21828;BME280;11076;47.942;11.804;2022-10-31T10:30:17;94678.03;;;17.12;69.31
21828;BME280;11076;47.942;11.804;2022-10-31T10:35:27;94689.41;;;17.14;67.41
21828;BME280;11076;47.942;11.804;2022-10-31T10:40:31;94669.28;;;17.27;67.33
21828;BME280;11076;47.942;11.804;2022-10-31T10:45:33;94679.44;;;17.42;66.16
21828;BME280;11076;47.942;11.804;2022-10-31T10:50:54;94668.97;;;17.78;65.49
21828;BME280;11076;47.942;11.804;2022-10-31T11:01:11;94669.41;;;18.29;62.42
21828;BME280;11076;47.942;11.804;2022-10-31T11:06:24;94655.38;;;18.37;62.19
21828;BME280;11076;47.942;11.804;2022-10-31T11:11:30;94647.31;;;18.47;61.56
21828;BME280;11076;47.942;11.804;2022-10-31T11:16:39;94647.13;;;18.59;61.31
21828;BME280;11076;47.942;11.804;2022-10-31T11:21:42;94641.19;;;18.67;62.64
21828;BME280;11076;47.942;11.804;2022-10-31T11:26:50;94636.25;;;18.49;63.50
21828;BME280;11076;47.942;11.804;2022-10-31T11:31:53;94626.16;;;18.39;63.05
21828;BME280;11076;47.942;11.804;2022-10-31T11:37:04;94625.56;;;18.32;63.48
21828;BME280;11076;47.942;11.804;2022-10-31T11:42:13;94618.03;;;18.39;63.38
21828;BME280;11076;47.942;11.804;2022-10-31T11:47:18;94626.22;;;18.49;61.70
21828;BME280;11076;47.942;11.804;2022-10-31T11:52:29;94616.53;;;18.64;61.79
21828;BME280;11076;47.942;11.804;2022-10-31T12:02:44;94603.78;;;19.27;59.58
21828;BME280;11076;47.942;11.804;2022-10-31T12:07:47;94605.44;;;19.39;59.61
21828;BME280;11076;47.942;11.804;2022-10-31T12:39:23;94577.53;;;18.60;62.02
21828;BME280;11076;47.942;11.804;2022-10-31T13:00:32;94554.22;;;18.48;65.50
21828;BME280;11076;47.942;11.804;2022-10-31T13:05:41;94543.41;;;18.48;66.64
21828;BME280;11076;47.942;11.804;2022-10-31T13:10:55;94537.41;;;18.41;66.77
21828;BME280;11076;47.942;11.804;2022-10-31T13:16:14;94533.88;;;18.46;66.92
21828;BME280;11076;47.942;11.804;2022-10-31T13:21:30;94528.28;;;18.63;66.79
21828;BME280;11076;47.942;11.804;2022-10-31T13:31:40;94512.31;;;18.66;67.73
21828;BME280;11076;47.942;11.804;2022-10-31T13:37:03;94509.97;;;18.96;67.42
21828;BME280;11076;47.942;11.804;2022-10-31T13:42:19;94499.16;;;19.11;67.24
21828;BME280;11076;47.942;11.804;2022-10-31T13:47:28;94500.25;;;19.10;66.10
21828;BME280;11076;47.942;11.804;2022-10-31T13:52:30;94491.19;;;18.74;67.32
21828;BME280;11076;47.942;11.804;2022-10-31T13:57:38;94483.28;;;18.46;70.02
21828;BME280;11076;47.942;11.804;2022-10-31T14:02:46;94486.44;;;18.23;71.63
21828;BME280;11076;47.942;11.804;2022-10-31T14:07:52;94487.13;;;17.93;73.65
21828;BME280;11076;47.942;11.804;2022-10-31T14:18:24;94485.13;;;17.40;76.15
21828;BME280;11076;47.942;11.804;2022-10-31T14:28:35;94476.16;;;17.35;76.97
21828;BME280;11076;47.942;11.804;2022-10-31T14:33:42;94481.72;;;17.55;77.06
21828;BME280;11076;47.942;11.804;2022-10-31T14:54:53;94449.41;;;17.76;74.75
21828;BME280;11076;47.942;11.804;2022-10-31T15:00:04;94439.34;;;17.66;74.85
21828;BME280;11076;47.942;11.804;2022-10-31T15:05:09;94434.78;;;17.29;75.65
21828;BME280;11076;47.942;11.804;2022-10-31T15:10:22;94437.50;;;16.97;76.08
21828;BME280;11076;47.942;11.804;2022-10-31T15:15:26;94426.19;;;16.73;76.09
21828;BME280;11076;47.942;11.804;2022-10-31T15:20:33;94427.13;;;16.56;76.31
21828;BME280;11076;47.942;11.804;2022-10-31T15:25:39;94428.28;;;16.38;76.73
21828;BME280;11076;47.942;11.804;2022-10-31T15:30:59;94413.25;;;16.20;77.88
21828;BME280;11076;47.942;11.804;2022-10-31T15:36:02;94419.25;;;16.00;78.40
21828;BME280;11076;47.942;11.804;2022-10-31T15:41:18;94412.53;;;15.81;79.26
21828;BME280;11076;47.942;11.804;2022-10-31T15:46:23;94412.00;;;15.62;80.32
21828;BME280;11076;47.942;11.804;2022-10-31T15:51:29;94415.41;;;15.35;81.34
21828;BME280;11076;47.942;11.804;2022-10-31T15:56:32;94406.78;;;15.16;82.92
21828;BME280;11076;47.942;11.804;2022-10-31T16:01:35;94411.78;;;14.90;83.01
21828;BME280;11076;47.942;11.804;2022-10-31T16:06:38;94409.16;;;14.62;84.55
21828;BME280;11076;47.942;11.804;2022-10-31T16:11:40;94409.16;;;14.62;85.19
21828;BME280;11076;47.942;11.804;2022-10-31T16:16:50;94409.44;;;14.48;86.25
21828;BME280;11076;47.942;11.804;2022-10-31T16:27:24;94406.03;;;13.96;88.34
21828;BME280;11076;47.942;11.804;2022-10-31T16:37:42;94412.69;;;13.52;91.93
21828;BME280;11076;47.942;11.804;2022-10-31T16:42:45;94413.63;;;13.23;93.79
21828;BME280;11076;47.942;11.804;2022-10-31T16:47:50;94419.34;;;13.03;94.75
21828;BME280;11076;47.942;11.804;2022-10-31T16:52:52;94428.88;;;12.75;97.48
21828;BME280;11076;47.942;11.804;2022-10-31T16:58:23;94434.34;;;12.57;97.76
21828;BME280;11076;47.942;11.804;2022-10-31T17:03:26;94433.03;;;12.36;98.10
21828;BME280;11076;47.942;11.804;2022-10-31T17:08:29;94438.66;;;12.16;98.70
21828;BME280;11076;47.942;11.804;2022-10-31T17:13:33;94436.22;;;11.96;99.96
21828;BME280;11076;47.942;11.804;2022-10-31T17:18:36;94428.34;;;11.82;100.00
21828;BME280;11076;47.942;11.804;2022-10-31T17:23:38;94431.94;;;11.76;100.00
21828;BME280;11076;47.942;11.804;2022-10-31T17:28:40;94438.00;;;11.83;100.00
21828;BME280;11076;47.942;11.804;2022-10-31T17:33:43;94432.16;;;11.56;100.00
21828;BME280;11076;47.942;11.804;2022-10-31T17:38:45;94434.81;;;11.38;100.00
21828;BME280;11076;47.942;11.804;2022-10-31T17:43:48;94423.50;;;11.17;100.00
21828;BME280;11076;47.942;11.804;2022-10-31T17:48:50;94421.72;;;11.11;100.00
21828;BME280;11076;47.942;11.804;2022-10-31T17:53:53;94422.91;;;10.97;100.00
21828;BME280;11076;47.942;11.804;2022-10-31T17:58:55;94432.50;;;10.79;100.00
21828;BME280;11076;47.942;11.804;2022-10-31T18:03:59;94414.81;;;10.78;100.00
21828;BME280;11076;47.942;11.804;2022-10-31T18:09:03;94425.19;;;10.68;100.00
21828;BME280;11076;47.942;11.804;2022-10-31T18:14:06;94422.47;;;10.49;100.00
21828;BME280;11076;47.942;11.804;2022-10-31T18:19:12;94420.94;;;10.35;100.00
21828;BME280;11076;47.942;11.804;2022-10-31T18:24:15;94424.09;;;10.19;100.00
21828;BME280;11076;47.942;11.804;2022-10-31T18:29:17;94423.31;;;10.11;100.00
21828;BME280;11076;47.942;11.804;2022-10-31T18:34:19;94427.69;;;9.99;100.00
21828;BME280;11076;47.942;11.804;2022-10-31T18:39:22;94421.34;;;9.93;100.00
21828;BME280;11076;47.942;11.804;2022-10-31T18:44:24;94415.38;;;9.98;100.00
21828;BME280;11076;47.942;11.804;2022-10-31T18:49:27;94413.41;;;9.87;100.00
21828;BME280;11076;47.942;11.804;2022-10-31T18:54:33;94404.41;;;9.74;100.00
21828;BME280;11076;47.942;11.804;2022-10-31T18:59:36;94405.66;;;9.72;100.00
21828;BME280;11076;47.942;11.804;2022-10-31T19:04:38;94397.88;;;9.64;100.00
21828;BME280;11076;47.942;11.804;2022-10-31T19:09:40;94402.25;;;9.51;100.00
21828;BME280;11076;47.942;11.804;2022-10-31T19:14:43;94400.44;;;9.45;100.00
21828;BME280;11076;47.942;11.804;2022-10-31T19:19:45;94397.16;;;9.43;100.00
21828;BME280;11076;47.942;11.804;2022-10-31T19:24:47;94396.16;;;9.38;100.00
21828;BME280;11076;47.942;11.804;2022-10-31T19:29:50;94398.41;;;9.34;100.00
21828;BME280;11076;47.942;11.804;2022-10-31T19:34:52;94392.28;;;9.27;100.00
21828;BME280;11076;47.942;11.804;2022-10-31T19:39:54;94401.13;;;9.21;100.00
21828;BME280;11076;47.942;11.804;2022-10-31T19:44:57;94395.59;;;9.22;100.00
21828;BME280;11076;47.942;11.804;2022-10-31T19:50:00;94400.09;;;9.15;100.00
21828;BME280;11076;47.942;11.804;2022-10-31T19:55:02;94397.69;;;9.00;100.00
21828;BME280;11076;47.942;11.804;2022-10-31T20:00:05;94396.69;;;8.94;100.00
21828;BME280;11076;47.942;11.804;2022-10-31T20:05:12;94404.28;;;8.84;100.00
21828;BME280;11076;47.942;11.804;2022-10-31T20:10:15;94400.56;;;8.85;100.00
21828;BME280;11076;47.942;11.804;2022-10-31T20:15:17;94399.56;;;8.86;100.00
21828;BME280;11076;47.942;11.804;2022-10-31T20:20:20;94398.31;;;8.89;100.00
21828;BME280;11076;47.942;11.804;2022-10-31T20:25:23;94401.84;;;8.89;100.00
21828;BME280;11076;47.942;11.804;2022-10-31T20:30:25;94399.16;;;8.89;100.00
21828;BME280;11076;47.942;11.804;2022-10-31T20:35:28;94402.63;;;8.96;100.00
21828;BME280;11076;47.942;11.804;2022-10-31T20:40:31;94420.28;;;8.71;100.00
21828;BME280;11076;47.942;11.804;2022-10-31T20:45:34;94421.09;;;8.51;100.00
21828;BME280;11076;47.942;11.804;2022-10-31T20:50:37;94421.09;;;8.38;100.00
21828;BME280;11076;47.942;11.804;2022-10-31T20:55:40;94427.25;;;8.32;100.00
21828;BME280;11076;47.942;11.804;2022-10-31T21:00:42;94434.16;;;8.20;100.00
21828;BME280;11076;47.942;11.804;2022-10-31T21:05:55;94435.78;;;8.07;100.00
21828;BME280;11076;47.942;11.804;2022-10-31T21:10:59;94428.41;;;8.09;100.00
21828;BME280;11076;47.942;11.804;2022-10-31T21:16:04;94427.59;;;8.02;100.00
21828;BME280;11076;47.942;11.804;2022-10-31T21:21:26;94428.22;;;8.04;100.00
21828;BME280;11076;47.942;11.804;2022-10-31T21:26:35;94427.38;;;7.97;100.00
21828;BME280;11076;47.942;11.804;2022-10-31T21:31:38;94421.84;;;7.92;100.00
21828;BME280;11076;47.942;11.804;2022-10-31T21:36:41;94421.06;;;7.98;100.00
21828;BME280;11076;47.942;11.804;2022-10-31T21:41:43;94424.53;;;8.05;100.00
21828;BME280;11076;47.942;11.804;2022-10-31T21:46:46;94421.88;;;8.05;100.00
21828;BME280;11076;47.942;11.804;2022-10-31T21:51:49;94423.47;;;8.00;100.00
21828;BME280;11076;47.942;11.804;2022-10-31T21:56:53;94420.19;;;7.91;100.00
21828;BME280;11076;47.942;11.804;2022-10-31T22:01:56;94414.88;;;7.84;100.00
21828;BME280;11076;47.942;11.804;2022-10-31T22:07:00;94418.72;;;7.82;100.00
21828;BME280;11076;47.942;11.804;2022-10-31T22:12:03;94410.38;;;7.85;100.00
21828;BME280;11076;47.942;11.804;2022-10-31T22:17:08;94405.84;;;7.85;100.00
21828;BME280;11076;47.942;11.804;2022-10-31T22:22:11;94409.75;;;7.89;100.00
21828;BME280;11076;47.942;11.804;2022-10-31T22:27:14;94404.44;;;7.89;100.00
21828;BME280;11076;47.942;11.804;2022-10-31T22:32:16;94407.50;;;7.86;100.00
21828;BME280;11076;47.942;11.804;2022-10-31T22:37:19;94407.94;;;7.96;100.00
21828;BME280;11076;47.942;11.804;2022-10-31T22:42:21;94400.75;;;7.97;100.00
21828;BME280;11076;47.942;11.804;2022-10-31T22:47:23;94400.94;;;7.89;100.00
21828;BME280;11076;47.942;11.804;2022-10-31T22:52:26;94403.00;;;7.87;100.00
21828;BME280;11076;47.942;11.804;2022-10-31T22:57:28;94400.72;;;7.77;100.00
21828;BME280;11076;47.942;11.804;2022-10-31T23:02:30;94397.88;;;7.79;100.00
21828;BME280;11076;47.942;11.804;2022-10-31T23:07:33;94401.34;;;7.86;100.00
21828;BME280;11076;47.942;11.804;2022-10-31T23:12:35;94400.94;;;7.82;100.00
21828;BME280;11076;47.942;11.804;2022-10-31T23:17:56;94403.19;;;7.79;100.00
21828;BME280;11076;47.942;11.804;2022-10-31T23:22:59;94413.41;;;7.82;100.00
21828;BME280;11076;47.942;11.804;2022-10-31T23:28:01;94402.75;;;7.68;100.00
21828;BME280;11076;47.942;11.804;2022-10-31T23:33:04;94399.25;;;7.61;100.00
21828;BME280;11076;47.942;11.804;2022-10-31T23:38:06;94411.50;;;7.55;100.00
21828;BME280;11076;47.942;11.804;2022-10-31T23:43:09;94407.78;;;7.43;100.00
21828;BME280;11076;47.942;11.804;2022-10-31T23:48:11;94408.59;;;7.44;100.00
21828;BME280;11076;47.942;11.804;2022-10-31T23:53:13;94404.31;;;7.49;100.00
21828;BME280;11076;47.942;11.804;2022-10-31T23:58:16;94401.72;;;7.69;100.00
